Time;durP1;ratioP1;P1;durP2;ratioP2;P2;SDS_P1;SDS_P2;PMS_P1;PMS_P2;Temp;Humidity;BMP_temperature;BMP_pressure;BME280_temperature;BME280_humidity;BME280_pressure;Samples;Min_cycle;Max_cycle;Signal;HPM_P1;HPM_P2
2022/03/31 00:00:37;;;;;;;1.50;0.80;;;13.20;47.60;;;;;;2251862;63;20300;-86
2022/03/31 00:03:06;;;;;;;1.45;0.63;;;13.20;47.60;;;;;;2251200;63;20386;-86
2022/03/31 00:05:33;;;;;;;1.33;0.70;;;13.20;47.50;;;;;;2251546;63;20274;-86
2022/03/31 00:08:06;;;;;;;1.02;0.60;;;13.20;47.60;;;;;;2251548;63;20961;-86
2022/03/31 00:10:37;;;;;;;1.17;0.52;;;13.20;47.60;;;;;;2251270;63;20377;-85
2022/03/31 00:13:06;;;;;;;1.67;0.60;;;13.20;47.60;;;;;;2251848;63;20220;-85
2022/03/31 00:15:32;;;;;;;1.40;0.80;;;13.20;47.60;;;;;;2251139;63;20212;-85
2022/03/31 00:17:59;;;;;;;0.77;0.55;;;13.20;47.60;;;;;;2251694;63;20379;-86
2022/03/31 00:20:26;;;;;;;0.70;0.60;;;13.20;47.60;;;;;;2251311;63;20389;-86
2022/03/31 00:22:52;;;;;;;1.13;0.65;;;13.20;47.70;;;;;;2251473;63;20212;-86
2022/03/31 00:25:18;;;;;;;1.98;0.65;;;13.20;47.60;;;;;;2251346;63;20221;-86
2022/03/31 00:27:44;;;;;;;0.80;0.50;;;13.20;47.60;;;;;;2251443;63;20381;-86
2022/03/31 00:30:13;;;;;;;0.65;0.60;;;13.10;47.50;;;;;;2251605;63;20278;-86
2022/03/31 00:32:40;;;;;;;1.05;0.52;;;13.10;47.50;;;;;;2251155;63;20208;-86
2022/03/31 00:35:07;;;;;;;1.27;0.52;;;13.10;47.50;;;;;;2251664;63;20361;-86
2022/03/31 00:37:33;;;;;;;1.38;0.70;;;13.20;47.60;;;;;;2251317;63;20224;-86
2022/03/31 00:40:03;;;;;;;1.48;0.80;;;13.10;47.60;;;;;;2251370;63;20225;-86
2022/03/31 00:42:31;;;;;;;1.77;0.57;;;13.10;47.60;;;;;;2251355;63;20220;-85
2022/03/31 00:44:56;;;;;;;2.25;0.80;;;13.10;47.60;;;;;;2251397;63;20237;-86
2022/03/31 00:47:23;;;;;;;2.10;0.68;;;13.10;47.60;;;;;;2251528;63;20224;-85
2022/03/31 00:49:52;;;;;;;0.70;0.50;;;13.10;47.70;;;;;;2249145;63;20381;-85
2022/03/31 00:52:18;;;;;;;1.60;0.70;;;13.10;47.70;;;;;;2251608;63;20318;-85
2022/03/31 00:54:44;;;;;;;1.25;0.60;;;13.00;47.70;;;;;;2250709;63;20390;-85
2022/03/31 00:57:12;;;;;;;1.42;0.80;;;13.00;47.60;;;;;;2251458;63;20244;-85
2022/03/31 00:59:38;;;;;;;1.30;0.65;;;13.00;47.70;;;;;;2251914;63;20230;-90
2022/03/31 01:02:04;;;;;;;0.82;0.52;;;13.00;47.70;;;;;;2251562;63;20270;-86
2022/03/31 01:04:31;;;;;;;1.45;0.52;;;13.00;47.70;;;;;;2251512;63;20220;-87
2022/03/31 01:06:57;;;;;;;1.25;0.60;;;13.00;47.70;;;;;;2251189;63;20853;-86
2022/03/31 01:09:23;;;;;;;0.90;0.52;;;13.00;47.70;;;;;;2251413;63;20318;-86
2022/03/31 01:11:49;;;;;;;1.58;0.63;;;13.00;47.70;;;;;;2251149;63;20263;-87
2022/03/31 01:14:15;;;;;;;0.90;0.43;;;13.00;47.60;;;;;;2251312;63;20208;-87
2022/03/31 01:16:41;;;;;;;0.95;0.57;;;13.00;47.60;;;;;;2250858;63;20224;-86
2022/03/31 01:19:11;;;;;;;0.85;0.50;;;13.00;47.70;;;;;;2251529;63;20233;-86
2022/03/31 01:21:47;;;;;;;1.05;0.60;;;12.90;47.60;;;;;;2251260;63;20645;-86
2022/03/31 01:24:14;;;;;;;1.75;0.80;;;12.90;47.70;;;;;;2251112;63;20686;-86
2022/03/31 01:26:41;;;;;;;0.68;0.50;;;12.90;47.70;;;;;;2251488;63;20795;-86
2022/03/31 01:29:10;;;;;;;1.23;0.63;;;12.90;47.80;;;;;;2251088;63;20358;-86
2022/03/31 01:31:40;;;;;;;1.58;0.60;;;12.90;47.70;;;;;;2251218;63;20196;-86
2022/03/31 01:34:07;;;;;;;1.92;0.60;;;12.90;47.80;;;;;;2251146;63;20395;-86
2022/03/31 01:36:35;;;;;;;2.13;0.88;;;12.80;47.80;;;;;;2251124;63;20338;-86
2022/03/31 01:39:01;;;;;;;1.60;0.65;;;12.80;47.80;;;;;;2251249;63;20212;-87
2022/03/31 01:41:27;;;;;;;1.92;0.70;;;12.80;47.90;;;;;;2250940;63;20307;-86
2022/03/31 01:43:53;;;;;;;1.10;0.57;;;12.80;48.00;;;;;;2251152;63;20374;-86
2022/03/31 01:46:19;;;;;;;0.95;0.60;;;12.80;48.00;;;;;;2250875;63;20763;-86
2022/03/31 01:48:45;;;;;;;1.25;0.65;;;12.70;47.90;;;;;;2243983;63;20224;-86
2022/03/31 01:51:12;;;;;;;1.35;0.60;;;12.80;47.90;;;;;;2250909;63;20257;-86
2022/03/31 01:53:39;;;;;;;0.70;0.60;;;12.80;47.90;;;;;;2250790;63;20689;-87
2022/03/31 01:56:06;;;;;;;0.88;0.60;;;12.70;47.90;;;;;;2251173;63;20231;-87
2022/03/31 01:58:33;;;;;;;1.45;0.70;;;12.70;47.90;;;;;;2250886;63;20204;-87
2022/03/31 02:01:00;;;;;;;1.48;0.50;;;12.70;47.90;;;;;;2251229;63;20228;-87
2022/03/31 02:03:26;;;;;;;1.77;0.63;;;12.70;47.90;;;;;;2250769;63;20253;-87
2022/03/31 02:05:52;;;;;;;3.15;0.70;;;12.70;47.90;;;;;;2244036;63;20236;-87
2022/03/31 02:08:19;;;;;;;1.10;0.60;;;12.70;47.80;;;;;;2250853;63;20687;-87
2022/03/31 02:10:45;;;;;;;1.73;0.80;;;12.70;47.90;;;;;;2251120;63;20374;-87
2022/03/31 02:13:12;;;;;;;2.25;0.80;;;12.70;47.90;;;;;;2243722;63;20211;-86
2022/03/31 02:15:38;;;;;;;2.20;0.70;;;12.70;47.90;;;;;;2250454;63;20389;-87
2022/03/31 02:18:04;;;;;;;1.80;0.50;;;12.70;48.00;;;;;;2251165;63;20709;-87
2022/03/31 02:20:30;;;;;;;0.90;0.50;;;12.70;48.00;;;;;;2250748;63;20227;-87
2022/03/31 02:23:00;;;;;;;0.88;0.70;;;12.60;48.00;;;;;;2243885;63;20703;-87
2022/03/31 02:25:26;;;;;;;1.75;0.50;;;12.60;48.00;;;;;;2250588;63;20216;-87
2022/03/31 02:27:53;;;;;;;1.08;0.60;;;12.60;48.00;;;;;;2244037;63;20224;-87
2022/03/31 02:30:21;;;;;;;1.63;0.70;;;12.60;48.00;;;;;;2250772;63;20232;-87
2022/03/31 02:32:47;;;;;;;0.68;0.45;;;12.60;48.00;;;;;;2250703;63;20224;-86
2022/03/31 02:35:13;;;;;;;1.33;0.60;;;12.60;48.00;;;;;;2250830;63;20212;-86
2022/03/31 02:37:39;;;;;;;0.98;0.70;;;12.60;48.00;;;;;;2250502;63;20747;-86
2022/03/31 02:40:06;;;;;;;1.33;0.70;;;12.60;48.00;;;;;;2250731;63;20357;-87
2022/03/31 02:42:35;;;;;;;0.85;0.55;;;12.60;48.10;;;;;;2250591;63;20407;-86
2022/03/31 02:45:03;;;;;;;1.60;0.70;;;12.60;48.10;;;;;;2250894;63;20224;-86
2022/03/31 02:47:29;;;;;;;1.35;0.60;;;12.60;48.00;;;;;;2250538;63;20470;-85
2022/03/31 02:49:56;;;;;;;0.73;0.57;;;12.60;48.00;;;;;;2250579;63;20383;-86
2022/03/31 02:52:24;;;;;;;0.85;0.70;;;12.60;48.00;;;;;;2243438;63;20239;-86
2022/03/31 02:57:35;;;;;;;0.88;0.70;;;12.60;47.90;;;;;;2250730;63;20858;-85
2022/03/31 03:00:01;;;;;;;1.50;0.80;;;12.60;47.90;;;;;;2250351;63;20218;-86
2022/03/31 03:02:27;;;;;;;1.13;0.75;;;12.60;47.90;;;;;;2250785;63;20350;-86
2022/03/31 03:04:52;;;;;;;0.50;0.50;;;12.60;47.90;;;;;;2250454;63;20702;-85
2022/03/31 03:07:18;;;;;;;0.77;0.68;;;12.60;47.90;;;;;;2250567;63;21127;-86
2022/03/31 03:09:44;;;;;;;1.02;0.60;;;12.60;47.90;;;;;;2250491;63;20342;-86
2022/03/31 03:12:10;;;;;;;1.23;0.70;;;12.50;48.00;;;;;;2250442;63;20759;-86
2022/03/31 03:14:36;;;;;;;1.27;0.60;;;12.50;48.00;;;;;;2250456;63;20257;-85
2022/03/31 03:17:02;;;;;;;0.75;0.50;;;12.50;48.00;;;;;;2250213;63;20770;-86
2022/03/31 03:19:28;;;;;;;1.10;0.60;;;12.50;48.00;;;;;;2250630;63;20225;-86
2022/03/31 03:21:54;;;;;;;1.27;0.70;;;12.50;48.10;;;;;;2250181;63;20290;-86
2022/03/31 03:24:22;;;;;;;1.30;0.60;;;12.40;48.00;;;;;;2250355;63;20365;-86
2022/03/31 03:26:48;;;;;;;1.17;0.57;;;12.40;48.10;;;;;;2250394;63;20253;-86
2022/03/31 03:29:14;;;;;;;1.10;0.70;;;12.40;48.10;;;;;;2250237;63;20200;-86
2022/03/31 03:31:39;;;;;;;0.90;0.70;;;12.40;48.10;;;;;;2250469;63;20224;-86
2022/03/31 03:34:05;;;;;;;0.77;0.57;;;12.40;48.10;;;;;;2249937;63;20365;-86
2022/03/31 03:36:31;;;;;;;0.40;0.40;;;12.40;48.10;;;;;;2250775;63;20350;-86
2022/03/31 03:38:57;;;;;;;0.55;0.50;;;12.40;48.10;;;;;;2243515;63;20212;-85
2022/03/31 03:41:23;;;;;;;0.60;0.40;;;12.40;48.10;;;;;;2251887;63;20212;-85
2022/03/31 03:43:50;;;;;;;0.40;0.40;;;12.40;48.20;;;;;;2251590;63;20281;-87
2022/03/31 03:46:15;;;;;;;1.10;0.80;;;12.40;48.20;;;;;;2251666;63;20224;-86
2022/03/31 03:48:41;;;;;;;1.00;0.57;;;12.40;48.20;;;;;;2251752;63;20220;-86
2022/03/31 03:51:09;;;;;;;1.38;0.50;;;12.40;48.20;;;;;;2251351;63;20719;-86
2022/03/31 03:53:36;;;;;;;0.60;0.60;;;12.40;48.20;;;;;;2251695;63;20806;-86
2022/03/31 03:56:02;;;;;;;0.70;0.65;;;12.40;48.30;;;;;;2251344;63;20299;-86
2022/03/31 03:58:28;;;;;;;0.85;0.57;;;12.40;48.30;;;;;;2251833;63;20380;-86
2022/03/31 04:00:54;;;;;;;1.13;0.63;;;12.40;48.30;;;;;;2251460;63;20232;-86
2022/03/31 04:03:19;;;;;;;0.63;0.50;;;12.50;48.30;;;;;;2251559;63;20216;-85
2022/03/31 04:05:45;;;;;;;0.50;0.50;;;12.50;48.30;;;;;;2251413;63;20318;-86
2022/03/31 04:08:11;;;;;;;0.50;0.50;;;12.50;48.30;;;;;;2251319;63;20201;-86
2022/03/31 04:10:37;;;;;;;1.50;0.70;;;12.60;48.30;;;;;;2251681;63;20208;-87
2022/03/31 04:13:03;;;;;;;0.68;0.68;;;12.60;48.20;;;;;;2251254;63;20220;-87
2022/03/31 04:15:29;;;;;;;0.82;0.60;;;12.70;48.10;;;;;;2251645;63;20672;-87
2022/03/31 04:17:55;;;;;;;0.82;0.77;;;12.70;48.10;;;;;;2251542;63;20849;-87
2022/03/31 04:20:21;;;;;;;0.60;0.60;;;12.70;48.00;;;;;;2251705;63;20685;-86
2022/03/31 04:22:46;;;;;;;0.80;0.75;;;12.70;47.90;;;;;;2251413;63;20376;-86
2022/03/31 04:25:13;;;;;;;0.70;0.50;;;12.80;48.00;;;;;;2244142;63;20192;-86
2022/03/31 04:27:40;;;;;;;1.17;0.77;;;12.80;47.90;;;;;;2244329;63;20257;-85
2022/03/31 04:30:09;;;;;;;0.50;0.50;;;12.80;47.80;;;;;;2251287;63;20233;-86
2022/03/31 04:32:35;;;;;;;0.75;0.60;;;12.80;47.80;;;;;;2251623;63;20261;-87
2022/03/31 04:35:01;;;;;;;0.60;0.60;;;12.90;47.80;;;;;;2251653;63;20835;-87
2022/03/31 04:37:27;;;;;;;0.60;0.57;;;12.90;47.70;;;;;;2252592;63;20269;-86
2022/03/31 04:39:53;;;;;;;0.95;0.70;;;12.90;47.60;;;;;;2251979;63;20289;-86
2022/03/31 04:42:20;;;;;;;0.50;0.50;;;12.90;47.70;;;;;;2252086;63;20228;-86
2022/03/31 04:44:46;;;;;;;1.02;0.60;;;12.90;47.60;;;;;;2244633;63;20703;-86
2022/03/31 04:47:13;;;;;;;1.23;0.60;;;13.00;47.60;;;;;;2252085;63;20647;-86
2022/03/31 04:49:38;;;;;;;0.65;0.60;;;13.00;47.50;;;;;;2252067;63;20249;-87
2022/03/31 04:52:06;;;;;;;0.50;0.50;;;13.10;47.50;;;;;;2251880;63;20662;-86
2022/03/31 04:54:34;;;;;;;0.75;0.70;;;13.10;47.40;;;;;;2251978;63;20237;-86
2022/03/31 04:57:00;;;;;;;0.80;0.70;;;13.20;47.40;;;;;;2251677;63;20744;-87
2022/03/31 04:59:26;;;;;;;0.70;0.60;;;13.20;47.30;;;;;;2251668;63;20346;-86
2022/03/31 05:01:52;;;;;;;0.70;0.70;;;13.20;47.10;;;;;;2244737;63;20248;-87
2022/03/31 05:04:18;;;;;;;0.60;0.60;;;13.20;47.10;;;;;;2251458;63;20868;-86
2022/03/31 05:06:44;;;;;;;0.77;0.77;;;13.20;47.10;;;;;;2251287;63;20268;-86
2022/03/31 05:09:09;;;;;;;0.90;0.60;;;13.20;47.00;;;;;;2250880;63;20236;-87
2022/03/31 05:11:35;;;;;;;0.80;0.80;;;13.30;47.10;;;;;;2251310;63;20369;-86
2022/03/31 05:14:01;;;;;;;0.50;0.50;;;13.30;47.00;;;;;;2243785;63;20226;-86
2022/03/31 05:16:27;;;;;;;0.60;0.55;;;13.30;46.90;;;;;;2251273;63;20228;-87
2022/03/31 05:18:53;;;;;;;0.68;0.65;;;13.30;47.10;;;;;;2250935;63;20314;-87
2022/03/31 05:21:18;;;;;;;0.60;0.60;;;13.40;46.90;;;;;;2251328;63;20329;-87
2022/03/31 05:23:44;;;;;;;0.60;0.60;;;13.30;46.80;;;;;;2250865;63;20803;-86
2022/03/31 05:26:10;;;;;;;0.70;0.65;;;13.40;46.90;;;;;;2243872;63;20204;-87
2022/03/31 05:28:36;;;;;;;0.52;0.52;;;13.30;46.70;;;;;;2251427;63;20357;-87
2022/03/31 05:31:02;;;;;;;0.50;0.50;;;13.30;46.80;;;;;;2251117;63;20393;-87
2022/03/31 05:33:28;;;;;;;0.60;0.60;;;13.30;46.80;;;;;;2251304;63;20688;-87
2022/03/31 05:35:54;;;;;;;0.50;0.50;;;13.30;46.80;;;;;;2250844;63;20699;-86
2022/03/31 05:38:20;;;;;;;0.93;0.60;;;13.30;46.80;;;;;;2251278;63;20216;-86
2022/03/31 05:40:46;;;;;;;0.40;0.40;;;13.30;46.70;;;;;;2251150;63;20400;-87
2022/03/31 05:43:12;;;;;;;0.50;0.50;;;13.30;46.80;;;;;;2250768;63;20227;-86
2022/03/31 05:45:38;;;;;;;0.60;0.60;;;13.30;46.70;;;;;;2250994;63;20244;-87
2022/03/31 05:48:04;;;;;;;0.80;0.60;;;13.30;46.70;;;;;;2250801;63;20280;-86
2022/03/31 05:50:30;;;;;;;0.93;0.70;;;13.30;46.70;;;;;;2251261;63;20404;-87
2022/03/31 05:52:56;;;;;;;0.63;0.60;;;13.30;46.70;;;;;;2250690;63;20212;-86
2022/03/31 05:55:25;;;;;;;0.70;0.70;;;13.30;46.70;;;;;;2251073;63;20188;-87
2022/03/31 05:57:51;;;;;;;0.50;0.50;;;13.30;46.60;;;;;;2243546;63;20304;-87
2022/03/31 06:00:19;;;;;;;0.50;0.50;;;13.30;46.60;;;;;;2250887;63;20377;-87
2022/03/31 06:02:46;;;;;;;0.60;0.60;;;13.30;46.60;;;;;;2250640;63;20236;-86
2022/03/31 06:05:13;;;;;;;0.57;0.57;;;13.30;46.70;;;;;;2250496;63;20408;-86
2022/03/31 06:07:39;;;;;;;0.70;0.70;;;13.30;46.70;;;;;;2250918;63;20231;-86
2022/03/31 06:10:06;;;;;;;0.55;0.55;;;13.20;46.70;;;;;;2250465;63;20245;-87
2022/03/31 06:12:32;;;;;;;0.50;0.50;;;13.20;46.70;;;;;;2251001;63;20245;-86
2022/03/31 06:14:58;;;;;;;0.60;0.60;;;13.20;46.70;;;;;;2251351;63;20471;-87
2022/03/31 06:17:24;;;;;;;0.68;0.65;;;13.20;46.70;;;;;;2250904;63;20253;-87
2022/03/31 06:19:50;;;;;;;0.60;0.60;;;13.20;46.70;;;;;;2251116;63;20358;-87
2022/03/31 06:22:16;;;;;;;0.70;0.70;;;13.20;46.70;;;;;;2249333;63;20288;-87
2022/03/31 06:24:42;;;;;;;0.70;0.70;;;13.20;46.60;;;;;;2250538;63;20392;-87
2022/03/31 06:27:08;;;;;;;0.60;0.60;;;13.10;46.60;;;;;;2248040;63;20236;-86
2022/03/31 06:29:35;;;;;;;0.60;0.60;;;13.10;46.70;;;;;;2249420;63;20236;-86
2022/03/31 06:32:02;;;;;;;0.80;0.80;;;13.10;46.70;;;;;;2252126;63;20231;-87
2022/03/31 06:34:28;;;;;;;0.60;0.60;;;13.10;46.70;;;;;;2259412;63;20321;-90
2022/03/31 06:36:55;;;;;;;0.60;0.60;;;13.10;46.80;;;;;;2258573;63;20689;-86
2022/03/31 06:39:21;;;;;;;0.60;0.60;;;13.00;46.80;;;;;;2246434;63;20308;-85
2022/03/31 06:41:47;;;;;;;0.60;0.60;;;13.00;46.90;;;;;;2253740;63;20212;-87
2022/03/31 06:44:15;;;;;;;0.60;0.60;;;13.00;47.00;;;;;;2250432;63;20196;-87
2022/03/31 06:46:41;;;;;;;0.50;0.50;;;13.00;47.00;;;;;;2250397;63;20690;-87
2022/03/31 06:49:08;;;;;;;0.73;0.73;;;13.00;47.70;;;;;;2250745;63;20882;-86
2022/03/31 06:51:34;;;;;;;0.65;0.65;;;13.00;47.00;;;;;;2250304;63;20322;-86
2022/03/31 06:54:02;;;;;;;0.75;0.60;;;13.00;47.00;;;;;;2251625;63;20417;-86
2022/03/31 06:56:32;;;;;;;0.75;0.75;;;13.00;47.00;;;;;;2252736;63;20450;-86
2022/03/31 06:58:59;;;;;;;0.73;0.73;;;12.90;47.00;;;;;;2252342;63;20235;-86
2022/03/31 07:01:25;;;;;;;0.70;0.70;;;12.90;47.00;;;;;;2257249;63;20883;-86
2022/03/31 07:03:51;;;;;;;0.90;0.90;;;12.90;47.00;;;;;;2257290;63;20220;-87
2022/03/31 07:06:18;;;;;;;0.70;0.70;;;12.90;47.00;;;;;;2252952;63;20424;-86
2022/03/31 07:08:44;;;;;;;0.70;0.70;;;12.90;47.00;;;;;;2255062;63;20654;-86
2022/03/31 07:11:11;;;;;;;0.68;0.68;;;12.90;47.00;;;;;;2256024;63;20249;-86
2022/03/31 07:13:37;;;;;;;1.23;0.88;;;12.90;47.10;;;;;;2258394;63;20286;-86
2022/03/31 07:16:04;;;;;;;0.82;0.82;;;12.90;47.10;;;;;;2258939;63;20300;-85
2022/03/31 07:18:30;;;;;;;0.70;0.70;;;12.80;47.00;;;;;;2259097;63;21136;-86
2022/03/31 07:20:59;;;;;;;0.75;0.63;;;12.80;47.10;;;;;;2256182;63;20603;-85
2022/03/31 07:23:26;;;;;;;1.13;1.08;;;12.80;47.20;;;;;;2256777;63;20237;-85
2022/03/31 07:25:53;;;;;;;0.70;0.70;;;12.80;47.20;;;;;;2259045;63;20407;-85
2022/03/31 07:28:20;;;;;;;0.88;0.80;;;12.80;47.20;;;;;;2249746;63;20317;-86
2022/03/31 07:30:46;;;;;;;1.17;0.73;;;12.80;47.20;;;;;;2257658;63;20955;-85
2022/03/31 07:33:12;;;;;;;0.57;0.57;;;12.80;47.30;;;;;;2251581;63;20273;-85
2022/03/31 07:35:37;;;;;;;1.25;0.90;;;12.80;47.30;;;;;;2256247;63;20347;-85
2022/03/31 07:38:07;;;;;;;1.58;0.93;;;12.80;47.30;;;;;;2257545;63;20303;-85
2022/03/31 07:40:33;;;;;;;;;;;12.70;47.30;;;;;;2259136;63;20240;-85
2022/03/31 07:43:01;;;;;;;0.88;0.88;;;12.70;48.00;;;;;;2258532;63;20819;-85
2022/03/31 07:45:28;;;;;;;1.83;0.88;;;12.70;47.30;;;;;;2254546;63;20588;-85
2022/03/31 07:47:55;;;;;;;0.90;0.85;;;12.70;47.30;;;;;;2250326;63;20211;-85
2022/03/31 07:50:21;;;;;;;0.80;0.80;;;12.70;47.30;;;;;;2258671;63;20220;-85
2022/03/31 07:52:49;;;;;;;0.80;0.80;;;12.70;47.30;;;;;;2255493;63;20684;-87
2022/03/31 07:55:17;;;;;;;0.85;0.85;;;12.70;47.40;;;;;;2246151;63;20243;-86
2022/03/31 07:57:46;;;;;;;0.90;0.90;;;12.70;47.40;;;;;;2255548;63;20227;-85
2022/03/31 08:00:14;;;;;;;0.90;0.90;;;12.70;47.40;;;;;;2254475;63;20361;-85
2022/03/31 08:02:41;;;;;;;0.80;0.80;;;12.70;47.50;;;;;;2255537;63;20342;-86
2022/03/31 08:05:09;;;;;;;1.00;1.00;;;12.70;47.50;;;;;;2255240;63;22595;-85
2022/03/31 08:07:36;;;;;;;0.82;0.82;;;12.70;47.50;;;;;;2251882;63;20244;-85
2022/03/31 08:10:04;;;;;;;1.08;1.00;;;12.70;47.50;;;;;;2252713;63;20219;-86
2022/03/31 08:12:30;;;;;;;1.58;1.27;;;12.70;47.50;;;;;;2245808;63;20228;-87
2022/03/31 08:14:56;;;;;;;2.55;1.23;;;12.70;47.50;;;;;;2255234;63;20244;-86
2022/03/31 08:17:22;;;;;;;1.33;1.23;;;12.70;47.50;;;;;;2257147;63;20220;-86
2022/03/31 08:19:48;;;;;;;1.10;1.10;;;12.60;47.50;;;;;;2256459;63;20240;-87
2022/03/31 08:22:15;;;;;;;1.17;1.10;;;12.60;47.50;;;;;;2250187;63;20208;-87
2022/03/31 08:24:41;;;;;;;1.50;1.40;;;12.60;47.50;;;;;;2251440;63;20232;-86
2022/03/31 08:27:07;;;;;;;1.33;1.17;;;12.60;47.60;;;;;;2252712;63;20385;-86
2022/03/31 08:29:33;;;;;;;1.45;1.35;;;12.60;47.50;;;;;;2252492;63;20777;-86
2022/03/31 08:32:01;;;;;;;1.50;1.40;;;12.60;47.70;;;;;;2250453;63;20212;-87
2022/03/31 08:34:27;;;;;;;1.52;1.30;;;12.60;47.60;;;;;;2256684;63;20612;-85
2022/03/31 08:36:53;;;;;;;1.70;1.60;;;12.60;47.70;;;;;;2256724;63;20239;-86
2022/03/31 08:39:19;;;;;;;1.80;1.50;;;12.60;47.70;;;;;;2256640;63;20296;-86
2022/03/31 08:41:45;;;;;;;1.70;1.40;;;12.60;47.70;;;;;;2257522;63;20473;-85
2022/03/31 08:44:13;;;;;;;1.58;1.48;;;12.60;47.70;;;;;;2258509;63;20231;-86
2022/03/31 08:46:39;;;;;;;1.42;1.33;;;12.50;47.80;;;;;;2258495;63;20357;-86
2022/03/31 08:49:07;;;;;;;1.58;1.48;;;12.50;47.80;;;;;;2258281;63;20236;-85
2022/03/31 08:51:34;;;;;;;1.60;1.50;;;12.50;47.90;;;;;;2257306;63;20659;-86
2022/03/31 08:54:00;;;;;;;1.60;1.50;;;12.50;47.80;;;;;;2256961;63;20437;-86
2022/03/31 08:56:26;;;;;;;1.75;1.65;;;12.50;47.90;;;;;;2254568;63;20702;-86
2022/03/31 08:58:57;;;;;;;1.73;1.50;;;12.50;48.00;;;;;;2256580;63;20415;-85
2022/03/31 09:01:23;;;;;;;1.35;1.25;;;12.50;47.90;;;;;;2256059;63;20657;-86
2022/03/31 09:03:49;;;;;;;1.50;1.40;;;12.50;48.00;;;;;;2246955;63;20648;-85
2022/03/31 09:06:27;;;;;;;1.75;1.50;;;12.40;47.90;;;;;;2256855;63;20717;-85
2022/03/31 09:08:55;;;;;;;1.50;1.40;;;12.50;48.00;;;;;;2255174;63;20238;-85
2022/03/31 09:11:27;;;;;;;1.50;1.40;;;12.40;48.00;;;;;;2255765;63;20264;-86
2022/03/31 09:13:56;;;;;;;2.05;1.55;;;12.40;48.10;;;;;;2255782;63;20714;-86
2022/03/31 09:16:31;;;;;;;1.70;1.60;;;12.40;48.00;;;;;;2257919;63;20220;-85
2022/03/31 09:19:02;;;;;;;1.42;1.33;;;12.40;48.10;;;;;;2256799;63;20263;-85
2022/03/31 09:21:30;;;;;;;1.50;1.40;;;12.40;48.10;;;;;;2253926;63;20273;-86
2022/03/31 09:23:58;;;;;;;1.30;1.20;;;12.40;48.20;;;;;;2254746;63;20292;-86
2022/03/31 09:26:27;;;;;;;1.45;1.30;;;12.30;48.10;;;;;;2256458;63;20246;-85
2022/03/31 09:28:54;;;;;;;1.48;1.38;;;12.40;48.10;;;;;;2256555;63;20253;-86
2022/03/31 09:31:27;;;;;;;1.45;1.13;;;12.40;48.70;;;;;;2255785;63;20608;-86
2022/03/31 09:33:55;;;;;;;1.42;1.33;;;12.40;48.10;;;;;;2255784;63;20668;-85
2022/03/31 09:36:23;;;;;;;1.30;1.20;;;12.40;48.10;;;;;;2256275;63;20239;-85
2022/03/31 09:38:53;;;;;;;1.30;1.20;;;12.40;48.00;;;;;;2255391;63;20207;-85
2022/03/31 09:41:29;;;;;;;1.20;1.10;;;12.40;48.10;;;;;;2254017;63;20384;-86
2022/03/31 09:43:59;;;;;;;1.40;1.30;;;12.40;48.10;;;;;;2255600;63;20215;-86
2022/03/31 09:46:28;;;;;;;1.10;1.10;;;12.30;48.20;;;;;;2254609;63;20760;-86
2022/03/31 09:48:56;;;;;;;1.17;1.10;;;12.30;48.20;;;;;;2252758;63;20686;-87
2022/03/31 09:51:24;;;;;;;1.15;1.08;;;12.30;48.30;;;;;;2253859;63;20230;-86
2022/03/31 09:53:53;;;;;;;1.20;1.10;;;12.20;48.20;;;;;;2252585;63;20332;-85
2022/03/31 09:56:21;;;;;;;1.20;1.10;;;12.30;48.30;;;;;;2251115;63;20358;-86
2022/03/31 09:58:48;;;;;;;0.90;0.90;;;12.20;48.30;;;;;;2252157;63;22235;-86
2022/03/31 10:01:17;;;;;;;1.23;1.13;;;12.20;48.30;;;;;;2254167;63;20236;-85
2022/03/31 10:03:43;;;;;;;0.90;0.90;;;12.20;48.50;;;;;;2251961;63;20334;-86
2022/03/31 10:06:11;;;;;;;1.00;0.90;;;12.20;48.30;;;;;;2244055;63;20456;-85
2022/03/31 10:08:39;;;;;;;1.00;1.00;;;12.20;48.30;;;;;;2251976;63;20223;-85
2022/03/31 10:11:07;;;;;;;1.15;1.05;;;12.20;48.30;;;;;;2252235;63;20259;-86
2022/03/31 10:13:43;;;;;;;0.90;0.90;;;12.20;48.40;;;;;;2252483;63;20236;-86
2022/03/31 10:16:13;;;;;;;1.20;1.10;;;12.20;48.50;;;;;;2252328;63;20240;-86
2022/03/31 10:18:40;;;;;;;0.90;0.90;;;12.20;48.40;;;;;;2251310;63;20235;-87
2022/03/31 10:21:06;;;;;;;1.00;1.00;;;12.20;48.40;;;;;;2251524;63;20236;-86
2022/03/31 10:26:27;;;;;;;1.10;1.00;;;12.20;48.40;;;;;;2252663;63;20792;-86
2022/03/31 10:28:58;;;;;;;1.17;1.08;;;12.20;48.40;;;;;;2249121;63;20257;-86
2022/03/31 10:31:44;;;;;;;1.17;1.10;;;12.10;48.30;;;;;;2249823;63;20240;-87
2022/03/31 10:34:12;;;;;;;0.88;0.88;;;12.10;48.40;;;;;;2252389;63;20299;-86
2022/03/31 10:36:48;;;;;;;0.80;0.80;;;12.20;48.40;;;;;;2253385;63;20318;-86
2022/03/31 10:39:22;;;;;;;0.82;0.82;;;12.20;48.40;;;;;;2250472;63;20296;-86
2022/03/31 10:42:00;;;;;;;1.00;1.00;;;12.10;48.40;;;;;;2251897;63;20288;-87
2022/03/31 10:44:26;;;;;;;0.93;0.93;;;12.20;48.40;;;;;;2251655;63;20265;-87
2022/03/31 10:47:02;;;;;;;1.13;1.13;;;12.20;48.40;;;;;;2251008;63;20216;-87
2022/03/31 10:49:28;;;;;;;0.80;0.80;;;12.10;48.30;;;;;;2251762;63;20236;-87
2022/03/31 10:51:55;;;;;;;1.02;1.02;;;12.20;48.40;;;;;;2251897;63;20722;-87
2022/03/31 10:54:26;;;;;;;1.25;1.15;;;12.20;48.30;;;;;;2254276;63;20235;-87
2022/03/31 10:57:13;;;;;;;0.75;0.75;;;12.20;48.30;;;;;;2253851;63;20235;-86
2022/03/31 10:59:42;;;;;;;0.85;0.85;;;12.20;48.30;;;;;;2252954;63;20208;-87
2022/03/31 11:02:15;;;;;;;0.90;0.90;;;12.20;48.20;;;;;;2256166;63;20938;-87
2022/03/31 11:04:46;;;;;;;0.90;0.90;;;12.20;48.10;;;;;;2253840;63;20258;-87
2022/03/31 11:07:17;;;;;;;0.88;0.88;;;12.30;48.10;;;;;;2257501;63;20239;-86
2022/03/31 11:09:44;;;;;;;0.70;0.70;;;12.20;48.10;;;;;;2252623;63;20286;-86
2022/03/31 11:12:29;;;;;;;1.00;1.00;;;12.20;48.10;;;;;;2247906;63;20208;-86
2022/03/31 11:15:02;;;;;;;0.73;0.70;;;12.30;48.30;;;;;;2252799;63;20330;-86
2022/03/31 11:17:29;;;;;;;0.80;0.80;;;12.30;48.40;;;;;;2251963;63;20304;-87
2022/03/31 11:20:03;;;;;;;0.80;0.80;;;12.40;48.50;;;;;;2255056;63;20386;-86
2022/03/31 11:22:30;;;;;;;0.70;0.70;;;12.40;48.50;;;;;;2254654;63;20249;-87
2022/03/31 11:25:09;;;;;;;0.80;0.80;;;12.50;48.60;;;;;;2252318;63;20236;-86
2022/03/31 11:27:36;;;;;;;;;;;12.60;48.60;;;;;;2252028;63;20314;-86
2022/03/31 11:30:18;;;;;;;1.08;0.80;;;12.70;48.60;;;;;;2252915;63;20100;-88
2022/03/31 11:32:45;;;;;;;0.60;0.60;;;12.80;48.50;;;;;;2254981;63;20630;-86
2022/03/31 11:35:17;;;;;;;0.70;0.70;;;12.90;48.40;;;;;;2255505;63;20260;-86
2022/03/31 11:37:48;;;;;;;0.90;0.90;;;13.00;48.30;;;;;;2255068;63;20253;-85
2022/03/31 11:40:22;;;;;;;0.85;0.82;;;13.10;48.80;;;;;;2255048;63;20372;-85
2022/03/31 11:42:50;;;;;;;0.90;0.85;;;13.10;48.00;;;;;;2254464;63;20259;-85
2022/03/31 11:45:48;;;;;;;1.30;0.82;;;13.20;47.90;;;;;;2256369;63;20294;-84
2022/03/31 11:48:15;;;;;;;0.73;0.73;;;13.30;47.60;;;;;;2254749;63;20261;-85
2022/03/31 11:50:59;;;;;;;0.90;0.88;;;13.30;47.50;;;;;;2254356;63;20249;-85
2022/03/31 11:53:40;;;;;;;0.80;0.80;;;13.40;47.60;;;;;;2255937;63;20871;-85
2022/03/31 11:56:21;;;;;;;1.05;0.95;;;13.50;47.40;;;;;;2257060;63;20727;-84
2022/03/31 11:58:49;;;;;;;1.00;1.00;;;13.50;47.10;;;;;;2258784;63;20340;-86
2022/03/31 12:01:19;;;;;;;1.85;0.95;;;13.60;47.10;;;;;;2255239;63;20224;-86
2022/03/31 12:03:48;;;;;;;1.10;1.00;;;13.60;47.00;;;;;;2253648;63;20231;-86
2022/03/31 12:06:16;;;;;;;0.80;0.80;;;13.70;47.00;;;;;;2258797;63;20430;-86
2022/03/31 12:08:43;;;;;;;0.90;0.90;;;13.70;46.90;;;;;;2258508;63;20216;-86
2022/03/31 12:11:10;;;;;;;0.90;0.90;;;13.80;46.90;;;;;;2258729;63;20219;-86
2022/03/31 12:13:57;;;;;;;1.05;1.00;;;13.80;46.80;;;;;;2247488;63;20444;-86
2022/03/31 12:16:25;;;;;;;1.20;1.10;;;13.90;46.60;;;;;;2258836;63;20797;-86
2022/03/31 12:18:59;;;;;;;1.23;1.13;;;13.90;46.50;;;;;;2256916;63;20245;-86
2022/03/31 12:21:27;;;;;;;1.25;1.15;;;13.90;46.50;;;;;;2255779;63;20319;-86
2022/03/31 12:23:57;;;;;;;1.27;1.10;;;14.00;46.50;;;;;;2258530;63;20298;-86
2022/03/31 12:26:24;;;;;;;1.30;1.20;;;14.00;46.50;;;;;;2256640;63;20343;-86
2022/03/31 12:28:50;;;;;;;1.30;1.20;;;14.00;46.40;;;;;;2255724;63;20235;-87
2022/03/31 12:31:27;;;;;;;1.10;1.00;;;14.00;46.30;;;;;;2251505;63;20747;-86
2022/03/31 12:33:53;;;;;;;1.20;1.05;;;14.10;46.30;;;;;;2251004;63;20685;-86
2022/03/31 12:36:33;;;;;;;1.40;1.30;;;14.10;46.30;;;;;;2252430;63;20256;-87
2022/03/31 12:39:05;;;;;;;1.27;1.17;;;14.20;46.20;;;;;;2249819;63;20252;-86
2022/03/31 12:41:34;;;;;;;1.70;1.60;;;14.20;46.10;;;;;;2249867;63;20638;-86
2022/03/31 12:44:07;;;;;;;1.60;1.50;;;14.20;46.10;;;;;;2251554;63;20249;-86
2022/03/31 12:46:37;;;;;;;1.58;1.48;;;14.30;46.00;;;;;;2252917;63;20288;-86
2022/03/31 12:49:08;;;;;;;2.00;1.80;;;14.30;46.00;;;;;;2258352;63;20215;-86
2022/03/31 12:51:53;;;;;;;2.05;1.80;;;14.40;45.90;;;;;;2257783;63;20227;-86
2022/03/31 12:54:19;;;;;;;1.90;1.80;;;14.40;45.90;;;;;;2257006;63;20247;-86
2022/03/31 12:56:47;;;;;;;2.45;2.00;;;14.40;45.80;;;;;;2254815;63;20252;-86